ADDS METAR Data INFO
IDs: Format: Raw Decoded Include TAF

Data at: 2253 UTC 11 Dec 2017

KCKF 112235Z AUTO 24005KT 10SM CLR 17/01 A3009 RMK AO2 T01670010
KCKF 112215Z AUTO 24008KT 10SM CLR 18/00 A3010 RMK AO2 T01760004
KCKF 112155Z AUTO 25009KT 10SM CLR 18/00 A3010 RMK AO2 T01810003
KCKF 112135Z AUTO 25008KT 10SM CLR 19/01 A3010 RMK AO2 T01850006
KCKF 112115Z AUTO 24012KT 10SM CLR 19/01 A3010 RMK AO2 T01860007
KCKF 112055Z AUTO 24008KT 10SM CLR 19/01 A3011 RMK AO2 T01880005
KCKF 112035Z AUTO 24009G14KT 10SM CLR 19/00 A3011 RMK AO2 T01870003
KCKF 112015Z AUTO 25006KT 10SM CLR 19/00 A3011 RMK AO2 T01850003
KCKF 111955Z AUTO 27007KT 10SM CLR 18/00 A3012 RMK AO2 T01840004
KCKF 111935Z AUTO 24008KT 10SM CLR 18/00 A3012 RMK AO2 T01840004
KCKF 111915Z AUTO 26006KT 10SM CLR 18/00 A3012 RMK AO2 T01810000
KCKF 111855Z AUTO 24006KT 10SM CLR 18/00 A3013 RMK AO2 T01810001
KCKF 111835Z AUTO 28005KT 10SM CLR 17/00 A3015 RMK AO2 T01731001
KCKF 111815Z AUTO 25006KT 10SM CLR 17/00 A3016 RMK AO2 T01700000
KCKF 111755Z AUTO 28005KT 10SM CLR 17/00 A3018 RMK AO2 T01690001 10169 20016
KCKF 111735Z AUTO 25006KT 10SM CLR 16/01 A3019 RMK AO2 T01610006
KCKF 111715Z AUTO 24006KT 10SM CLR 15/01 A3021 RMK AO2 T01510011
KCKF 111655Z AUTO 24006KT 10SM CLR 14/01 A3023 RMK AO2 T01430011
KCKF 111635Z AUTO 23005KT 10SM CLR 14/01 A3024 RMK AO2 T01390010
KCKF 111615Z AUTO 22005KT 10SM CLR 13/01 A3024 RMK AO2 T01290006
KCKF 111555Z AUTO 24005KT 10SM CLR 12/01 A3026 RMK AO2 T01210008
KCKF 111535Z AUTO 00000KT 10SM CLR 10/02 A3026 RMK AO2 T01020017
KCKF 111515Z AUTO 23004KT 10SM CLR 09/02 A3027 RMK AO2 T00890015
KCKF 111455Z AUTO 25004KT 10SM CLR 08/01 A3027 RMK AO2 T00780011
KCKF 111435Z AUTO 24005KT 10SM CLR 07/01 A3028 RMK AO2 T00670007
KCKF 111415Z AUTO 23004KT 10SM CLR 06/00 A3028 RMK AO2 T00570004
KCKF 111355Z AUTO 24004KT 10SM CLR 05/00 A3027 RMK AO2 T00510002
KCKF 111335Z AUTO 22005KT 10SM CLR 04/00 A3027 RMK AO2 T00431002
KCKF 111315Z AUTO 00000KT 10SM CLR 03/00 A3027 RMK AO2 T00291005
KCKF 111255Z AUTO 00000KT 10SM CLR 02/M01 A3028 RMK AO2 T00201011
KCKF 111235Z AUTO 00000KT 10SM CLR 02/M01 A3027 RMK AO2 T00201011
KCKF 111215Z AUTO 00000KT 10SM CLR 02/M01 A3027 RMK AO2 T00171012
KCKF 111155Z AUTO 00000KT 10SM CLR 02/M01 A3027 RMK AO2 T00161010 10022 20010
KCKF 111135Z AUTO 00000KT 10SM CLR 02/M01 A3026 RMK AO2 T00181011
KCKF 111115Z AUTO 00000KT 10SM CLR 02/M01 A3026 RMK AO2 T00181012
KCKF 111055Z AUTO 00000KT 10SM CLR 02/M01 A3026 RMK AO2 T00181013
KCKF 111035Z AUTO 22003KT 10SM CLR 02/M01 A3026 RMK AO2 T00171014
KCKF 111015Z AUTO 00000KT 10SM CLR 02/M01 A3026 RMK AO2 T00151009
KCKF 110955Z AUTO 00000KT 10SM CLR 01/M01 A3027 RMK AO2 T00121006
KCKF 110935Z AUTO 00000KT 10SM CLR 01/M01 A3027 RMK AO2 T00111006
KCKF 110915Z AUTO 00000KT 10SM CLR 01/00 A3027 RMK AO2 T00141003
KCKF 110855Z AUTO 00000KT 10SM CLR 01/00 A3028 RMK AO2 T00131005
KCKF 110835Z AUTO 00000KT 10SM CLR 01/00 A3028 RMK AO2 T00111004
KCKF 110815Z AUTO 00000KT 10SM CLR 01/M01 A3029 RMK AO2 T00131007
KCKF 110755Z AUTO 00000KT 10SM CLR 02/M01 A3030 RMK AO2 T00161006
KCKF 110735Z AUTO 00000KT 10SM CLR 01/00 A3030 RMK AO2 T00141005
KCKF 110715Z AUTO 00000KT 10SM CLR 02/00 A3031 RMK AO2 T00151001
KCKF 110655Z AUTO 00000KT 10SM CLR 02/00 A3030 RMK AO2 T00151002
KCKF 110635Z AUTO 00000KT 10SM CLR 02/M01 A3030 RMK AO2 T00181007
KCKF 110615Z AUTO 00000KT 10SM CLR 02/00 A3029 RMK AO2 T00180000
KCKF 110555Z AUTO 00000KT 10SM CLR 02/00 A3029 RMK AO2 T00171003 10065 20017 401250000
KCKF 110535Z AUTO 00000KT 10SM CLR 02/00 A3030 RMK AO2 T00230000
KCKF 110515Z AUTO 00000KT 10SM CLR 02/00 A3030 RMK AO2 T00221002
KCKF 110455Z AUTO 00000KT 10SM CLR 02/M01 A3031 RMK AO2 T00201006
KCKF 110435Z AUTO 00000KT 10SM CLR 03/00 A3031 RMK AO2 T00261001
KCKF 110415Z AUTO 28003KT 10SM CLR 02/00 A3031 RMK AO2 T00241003
KCKF 110355Z AUTO 00000KT 10SM CLR 03/00 A3031 RMK AO2 T00310000
KCKF 110335Z AUTO 00000KT 10SM CLR 04/00 A3031 RMK AO2 T00431005
KCKF 110315Z AUTO 00000KT 10SM CLR 04/01 A3031 RMK AO2 T00350006
KCKF 110255Z AUTO 00000KT 10SM CLR 03/00 A3031 RMK AO2 T00320000
KCKF 110235Z AUTO 00000KT 10SM CLR 04/00 A3031 RMK AO2 T00401001
KCKF 110215Z AUTO 00000KT 10SM CLR 04/00 A3030 RMK AO2 T00420000
KCKF 110155Z AUTO 00000KT 10SM CLR 04/01 A3029 RMK AO2 T00420005
KCKF 110135Z AUTO 00000KT 10SM CLR 05/00 A3029 RMK AO2 T00470000
KCKF 110115Z AUTO 00000KT 10SM CLR 05/00 A3029 RMK AO2 T00450000
KCKF 110055Z AUTO 00000KT 10SM CLR 05/00 A3029 RMK AO2 T00490000
KCKF 110035Z AUTO 00000KT 10SM CLR 06/00 A3029 RMK AO2 T00601002
KCKF 110015Z AUTO 00000KT 10SM CLR 06/00 A3029 RMK AO2 T00600001
KCKF 102355Z AUTO 00000KT 10SM CLR 07/M01 A3028 RMK AO2 T00661012 10125 20066
KCKF 102340Z AUTO 00000KT 10SM CLR 07/M01 A3028 RMK AO2 T00711007
KCKF 102315Z AUTO 00000KT 10SM CLR 08/M01 A3028 RMK AO2 T00751010
KCKF 102255Z AUTO 00000KT 10SM CLR 09/M03 A3028 RMK AO2 T00921028
KCKF 102235Z AUTO 28003KT 10SM CLR 10/M04 A3028 RMK AO2 T01011039
KCKF 102215Z AUTO 27005KT 10SM CLR 11/M05 A3027 RMK AO2 T01121051
KCKF 102155Z AUTO 28005KT 10SM CLR 12/M06 A3027 RMK AO2 T01181056
KCKF 102135Z AUTO 28005KT 10SM CLR 12/M05 A3027 RMK AO2 T01221055
KCKF 102115Z AUTO 27009KT 10SM CLR 12/M06 A3026 RMK AO2 T01231059
KCKF 102055Z AUTO 27009KT 10SM CLR 13/M05 A3026 RMK AO2 T01251053
KCKF 102035Z AUTO 29007G14KT 10SM CLR 12/M05 A3026 RMK AO2 T01231055
KCKF 102015Z AUTO 28008KT 10SM CLR 12/M06 A3027 RMK AO2 T01221057
KCKF 101955Z AUTO 27007KT 10SM CLR 12/M05 A3028 RMK AO2 T01181053
KCKF 101935Z AUTO 30007G18KT 10SM CLR 12/M05 A3028 RMK AO2 T01221054
KCKF 101915Z AUTO 27009KT 10SM CLR 11/M05 A3028 RMK AO2 T01131055
KCKF 101855Z AUTO 27007KT 10SM CLR 11/M06 A3029 RMK AO2 T01121056
KCKF 101835Z AUTO 32007KT 10SM CLR 11/M05 A3029 RMK AO2 T01101052
KCKF 101815Z AUTO 32007KT 10SM CLR 11/M07 A3030 RMK AO2 T01051072
KCKF 101755Z AUTO 32008KT 290V360 10SM CLR 10/M06 A3031 RMK AO2 T00991060 10102 20000
KCKF 101735Z AUTO 28005KT 10SM CLR 10/M05 A3032 RMK AO2 T00971053
KCKF 101715Z AUTO 30005KT 10SM CLR 09/M05 A3033 RMK AO2 T00911052
KCKF 101655Z AUTO 31006KT 10SM CLR 08/M05 A3033 RMK AO2 T00831051
KCKF 101635Z AUTO 34004KT 10SM CLR 08/M04 A3034 RMK AO2 T00771044
KCKF 101615Z AUTO 31005KT 10SM CLR 07/M04 A3034 RMK AO2 T00741040
KCKF 101555Z AUTO 30006KT 10SM CLR 07/M03 A3035 RMK AO2 T00701033
KCKF 101535Z AUTO 35006KT 10SM CLR 06/M03 A3035 RMK AO2 T00601035
KCKF 101515Z AUTO 31007KT 10SM CLR 06/M03 A3035 RMK AO2 T00551030
KCKF 101455Z AUTO 33006KT 10SM CLR 05/M02 A3035 RMK AO2 T00511022
KCKF 101435Z AUTO 31005KT 10SM CLR 04/M01 A3035 RMK AO2 T00441010
KCKF 101415Z AUTO 30005KT 10SM CLR 04/00 A3035 RMK AO2 T00351001
KCKF 101355Z AUTO 29004KT 10SM CLR 03/00 A3034 RMK AO2 T00250002
KCKF 101335Z AUTO 28005KT 10SM CLR 02/00 A3034 RMK AO2 T00170001
KCKF 101315Z AUTO 28004KT 10SM CLR 01/00 A3033 RMK AO2 T00071002
KCKF 101255Z AUTO 27003KT 10SM CLR 00/M01 A3033 RMK AO2 T00001010
KCKF 101240Z AUTO 00000KT 10SM CLR 00/M01 A3033 RMK AO2 T00011010
KCKF 101215Z AUTO 00000KT 10SM CLR 01/M01 A3033 RMK AO2 T00051007
KCKF 101155Z AUTO 00000KT 10SM CLR 01/00 A3032 RMK AO2 T00051005 10028 20001
KCKF 101135Z AUTO 00000KT 10SM CLR 00/M01 A3031 RMK AO2 T00021010
KCKF 101115Z AUTO 00000KT 10SM CLR 01/M01 A3031 RMK AO2 T00051008
KCKF 101055Z AUTO 00000KT 10SM CLR 01/00 A3030 RMK AO2 T00051005